RJKB(METAR)
08/25 18:00
RJKB 250900Z 15004KT 9999 FEW015 BKNXXX 30/26 Q1013 RMK A2992=
戻る
トップページへ戻る
IMOC Co,.Ltd.